sensor_id;sensor_type;location;lat;lon;timestamp;pressure;altitude;pressure_sealevel;temperature;humidity
59053;BME280;44843;44.728;10.396;2022-11-18T00:01:59;98998.53;;;13.27;100.00
59053;BME280;44843;44.728;10.396;2022-11-18T00:04:25;98994.38;;;13.25;100.00
59053;BME280;44843;44.728;10.396;2022-11-18T00:06:50;99001.28;;;13.26;100.00
59053;BME280;44843;44.728;10.396;2022-11-18T00:09:15;98992.44;;;13.27;100.00
59053;BME280;44843;44.728;10.396;2022-11-18T00:11:41;98983.38;;;13.21;100.00
59053;BME280;44843;44.728;10.396;2022-11-18T00:14:25;98996.31;;;13.23;100.00
59053;BME280;44843;44.728;10.396;2022-11-18T00:16:59;99009.25;;;13.24;100.00
59053;BME280;44843;44.728;10.396;2022-11-18T00:19:36;99010.66;;;13.28;100.00
59053;BME280;44843;44.728;10.396;2022-11-18T00:22:03;99000.59;;;13.24;100.00
59053;BME280;44843;44.728;10.396;2022-11-18T00:24:29;99005.13;;;13.22;100.00
59053;BME280;44843;44.728;10.396;2022-11-18T00:26:55;99015.31;;;13.25;100.00
59053;BME280;44843;44.728;10.396;2022-11-18T00:29:21;99008.16;;;13.27;100.00
59053;BME280;44843;44.728;10.396;2022-11-18T00:31:47;99007.31;;;13.26;100.00
59053;BME280;44843;44.728;10.396;2022-11-18T00:34:15;99011.31;;;13.40;100.00
59053;BME280;44843;44.728;10.396;2022-11-18T00:36:42;99012.44;;;13.47;100.00
59053;BME280;44843;44.728;10.396;2022-11-18T00:39:10;99011.31;;;13.50;100.00
59053;BME280;44843;44.728;10.396;2022-11-18T00:41:35;99014.19;;;13.56;100.00
59053;BME280;44843;44.728;10.396;2022-11-18T00:44:19;99014.31;;;13.55;100.00
59053;BME280;44843;44.728;10.396;2022-11-18T00:46:45;99003.47;;;13.50;100.00
59053;BME280;44843;44.728;10.396;2022-11-18T00:49:10;99014.75;;;13.50;100.00
59053;BME280;44843;44.728;10.396;2022-11-18T00:51:36;99014.63;;;13.42;100.00
59053;BME280;44843;44.728;10.396;2022-11-18T00:54:02;99016.03;;;13.36;100.00
59053;BME280;44843;44.728;10.396;2022-11-18T00:56:28;99011.06;;;13.43;100.00
59053;BME280;44843;44.728;10.396;2022-11-18T00:58:53;98999.63;;;13.34;100.00
59053;BME280;44843;44.728;10.396;2022-11-18T01:01:19;98993.28;;;13.37;100.00
59053;BME280;44843;44.728;10.396;2022-11-18T01:03:45;98991.09;;;13.32;100.00
59053;BME280;44843;44.728;10.396;2022-11-18T01:06:10;98986.00;;;13.31;100.00
59053;BME280;44843;44.728;10.396;2022-11-18T01:08:36;98969.84;;;13.26;100.00
59053;BME280;44843;44.728;10.396;2022-11-18T01:11:01;98978.41;;;13.28;100.00
59053;BME280;44843;44.728;10.396;2022-11-18T01:13:48;98978.41;;;13.28;100.00
59053;BME280;44843;44.728;10.396;2022-11-18T01:16:18;98983.50;;;13.29;100.00
59053;BME280;44843;44.728;10.396;2022-11-18T01:18:44;98977.31;;;13.30;100.00
59053;BME280;44843;44.728;10.396;2022-11-18T01:21:09;98962.44;;;13.21;100.00
59053;BME280;44843;44.728;10.396;2022-11-18T01:23:34;98964.63;;;13.35;100.00
59053;BME280;44843;44.728;10.396;2022-11-18T01:26:03;98960.25;;;13.36;100.00
59053;BME280;44843;44.728;10.396;2022-11-18T01:28:29;98942.66;;;13.56;100.00
59053;BME280;44843;44.728;10.396;2022-11-18T01:31:03;98926.28;;;13.54;100.00
59053;BME280;44843;44.728;10.396;2022-11-18T01:33:28;98924.28;;;13.66;100.00
59053;BME280;44843;44.728;10.396;2022-11-18T01:35:54;98913.25;;;13.62;100.00
59053;BME280;44843;44.728;10.396;2022-11-18T01:38:19;98896.72;;;13.62;100.00
59053;BME280;44843;44.728;10.396;2022-11-18T01:40:44;98894.84;;;13.54;100.00
59053;BME280;44843;44.728;10.396;2022-11-18T01:43:12;98890.97;;;13.58;100.00
59053;BME280;44843;44.728;10.396;2022-11-18T01:45:39;98870.03;;;13.58;100.00
59053;BME280;44843;44.728;10.396;2022-11-18T01:48:15;98873.47;;;13.49;100.00
59053;BME280;44843;44.728;10.396;2022-11-18T01:51:00;98879.28;;;13.52;100.00
59053;BME280;44843;44.728;10.396;2022-11-18T01:53:30;98868.41;;;13.47;100.00
59053;BME280;44843;44.728;10.396;2022-11-18T01:55:59;98873.78;;;13.46;100.00
59053;BME280;44843;44.728;10.396;2022-11-18T01:58:29;98864.00;;;13.48;100.00
59053;BME280;44843;44.728;10.396;2022-11-18T02:00:57;98846.94;;;13.44;100.00
59053;BME280;44843;44.728;10.396;2022-11-18T02:03:24;98845.44;;;13.31;100.00
59053;BME280;44843;44.728;10.396;2022-11-18T02:05:50;98843.94;;;13.38;100.00
59053;BME280;44843;44.728;10.396;2022-11-18T02:08:18;98832.91;;;13.35;100.00
59053;BME280;44843;44.728;10.396;2022-11-18T02:10:43;98827.44;;;13.28;100.00
59053;BME280;44843;44.728;10.396;2022-11-18T02:13:10;98824.38;;;13.33;100.00
59053;BME280;44843;44.728;10.396;2022-11-18T02:18:59;98811.72;;;13.56;100.00
59053;BME280;44843;44.728;10.396;2022-11-18T02:24:13;98804.00;;;13.54;100.00
59053;BME280;44843;44.728;10.396;2022-11-18T02:26:57;98808.00;;;13.76;100.00
59053;BME280;44843;44.728;10.396;2022-11-18T02:29:33;98816.75;;;13.67;100.00
59053;BME280;44843;44.728;10.396;2022-11-18T02:32:10;98818.59;;;13.57;100.00
59053;BME280;44843;44.728;10.396;2022-11-18T02:34:44;98806.31;;;13.57;100.00
59053;BME280;44843;44.728;10.396;2022-11-18T02:37:27;98804.72;;;13.47;100.00
59053;BME280;44843;44.728;10.396;2022-11-18T02:40:06;98817.81;;;13.47;100.00
59053;BME280;44843;44.728;10.396;2022-11-18T02:42:34;98823.06;;;13.47;100.00
59053;BME280;44843;44.728;10.396;2022-11-18T02:45:08;98865.38;;;13.42;100.00
59053;BME280;44843;44.728;10.396;2022-11-18T02:47:36;98891.31;;;13.35;100.00
59053;BME280;44843;44.728;10.396;2022-11-18T02:50:05;98902.78;;;13.34;100.00
59053;BME280;44843;44.728;10.396;2022-11-18T02:52:33;98915.88;;;13.34;100.00
59053;BME280;44843;44.728;10.396;2022-11-18T02:55:02;98922.72;;;13.35;100.00
59053;BME280;44843;44.728;10.396;2022-11-18T02:57:30;98926.34;;;13.34;100.00
59053;BME280;44843;44.728;10.396;2022-11-18T02:59:57;98928.66;;;13.37;100.00
59053;BME280;44843;44.728;10.396;2022-11-18T03:02:23;98905.97;;;13.28;100.00
59053;BME280;44843;44.728;10.396;2022-11-18T03:04:50;98899.59;;;13.31;100.00
59053;BME280;44843;44.728;10.396;2022-11-18T03:07:28;98880.34;;;13.32;100.00
59053;BME280;44843;44.728;10.396;2022-11-18T03:09:56;98857.84;;;13.39;100.00
59053;BME280;44843;44.728;10.396;2022-11-18T03:12:41;98827.44;;;13.56;100.00
59053;BME280;44843;44.728;10.396;2022-11-18T03:18:25;98829.41;;;13.72;100.00
59053;BME280;44843;44.728;10.396;2022-11-18T03:21:30;98846.69;;;13.65;100.00
59053;BME280;44843;44.728;10.396;2022-11-18T03:24:06;98841.91;;;13.60;100.00
59053;BME280;44843;44.728;10.396;2022-11-18T03:26:49;98824.22;;;13.62;100.00
59053;BME280;44843;44.728;10.396;2022-11-18T03:29:22;98828.97;;;13.49;100.00
59053;BME280;44843;44.728;10.396;2022-11-18T03:32:05;98843.34;;;13.45;100.00
59053;BME280;44843;44.728;10.396;2022-11-18T03:34:37;98837.44;;;13.43;100.00
59053;BME280;44843;44.728;10.396;2022-11-18T03:37:07;98838.53;;;13.40;100.00
59053;BME280;44843;44.728;10.396;2022-11-18T03:39:36;98833.59;;;13.37;100.00
59053;BME280;44843;44.728;10.396;2022-11-18T03:42:11;98834.81;;;13.43;100.00
59053;BME280;44843;44.728;10.396;2022-11-18T03:44:40;98824.75;;;13.38;100.00
59053;BME280;44843;44.728;10.396;2022-11-18T03:47:13;98831.78;;;13.37;100.00
59053;BME280;44843;44.728;10.396;2022-11-18T03:49:44;98833.22;;;13.32;100.00
59053;BME280;44843;44.728;10.396;2022-11-18T03:52:16;98822.13;;;13.38;100.00
59053;BME280;44843;44.728;10.396;2022-11-18T03:54:43;98817.75;;;13.38;100.00
59053;BME280;44843;44.728;10.396;2022-11-18T03:57:20;98816.09;;;13.37;100.00
59053;BME280;44843;44.728;10.396;2022-11-18T04:00:04;98814.44;;;13.36;100.00
59053;BME280;44843;44.728;10.396;2022-11-18T04:02:30;98815.13;;;13.38;100.00
59053;BME280;44843;44.728;10.396;2022-11-18T04:04:57;98819.03;;;13.52;100.00
59053;BME280;44843;44.728;10.396;2022-11-18T04:10:17;98809.81;;;13.76;100.00
59053;BME280;44843;44.728;10.396;2022-11-18T04:12:49;98824.72;;;13.75;100.00
59053;BME280;44843;44.728;10.396;2022-11-18T04:15:17;98841.75;;;13.79;100.00
59053;BME280;44843;44.728;10.396;2022-11-18T04:17:43;98838.09;;;13.72;100.00
59053;BME280;44843;44.728;10.396;2022-11-18T04:20:14;98829.88;;;13.57;100.00
59053;BME280;44843;44.728;10.396;2022-11-18T04:22:41;98822.72;;;13.59;100.00
59053;BME280;44843;44.728;10.396;2022-11-18T04:25:07;98832.81;;;13.54;100.00
59053;BME280;44843;44.728;10.396;2022-11-18T04:27:32;98830.63;;;13.50;100.00
59053;BME280;44843;44.728;10.396;2022-11-18T04:29:57;98842.66;;;13.43;100.00
59053;BME280;44843;44.728;10.396;2022-11-18T04:32:23;98839.66;;;13.37;100.00
59053;BME280;44843;44.728;10.396;2022-11-18T04:34:48;98842.56;;;13.34;100.00
59053;BME280;44843;44.728;10.396;2022-11-18T04:37:14;98836.44;;;13.44;100.00
59053;BME280;44843;44.728;10.396;2022-11-18T04:39:39;98826.41;;;13.39;100.00
59053;BME280;44843;44.728;10.396;2022-11-18T04:42:04;98828.22;;;13.38;100.00
59053;BME280;44843;44.728;10.396;2022-11-18T04:44:31;98825.50;;;13.30;100.00
59053;BME280;44843;44.728;10.396;2022-11-18T04:46:59;98831.03;;;13.17;100.00
59053;BME280;44843;44.728;10.396;2022-11-18T04:49:26;98837.91;;;13.18;100.00
59053;BME280;44843;44.728;10.396;2022-11-18T04:51:52;98843.41;;;13.25;100.00
59053;BME280;44843;44.728;10.396;2022-11-18T04:54:19;98837.59;;;13.31;100.00
59053;BME280;44843;44.728;10.396;2022-11-18T04:56:45;98838.13;;;13.45;100.00
59053;BME280;44843;44.728;10.396;2022-11-18T04:59:11;98839.44;;;13.49;100.00
59053;BME280;44843;44.728;10.396;2022-11-18T05:01:37;98840.78;;;13.63;100.00
59053;BME280;44843;44.728;10.396;2022-11-18T05:04:03;98841.59;;;13.63;100.00
59053;BME280;44843;44.728;10.396;2022-11-18T05:06:30;98852.06;;;13.63;100.00
59053;BME280;44843;44.728;10.396;2022-11-18T05:08:57;98847.13;;;13.60;100.00
59053;BME280;44843;44.728;10.396;2022-11-18T05:11:23;98851.00;;;13.56;100.00
59053;BME280;44843;44.728;10.396;2022-11-18T05:14:08;98850.28;;;13.36;100.00
59053;BME280;44843;44.728;10.396;2022-11-18T05:16:33;98843.94;;;13.38;100.00
59053;BME280;44843;44.728;10.396;2022-11-18T05:19:00;98843.38;;;13.35;100.00
59053;BME280;44843;44.728;10.396;2022-11-18T05:21:26;98839.53;;;13.29;100.00
59053;BME280;44843;44.728;10.396;2022-11-18T05:23:51;98847.28;;;13.21;100.00
59053;BME280;44843;44.728;10.396;2022-11-18T05:26:17;98853.03;;;13.25;100.00
59053;BME280;44843;44.728;10.396;2022-11-18T05:28:42;98855.50;;;13.26;100.00
59053;BME280;44843;44.728;10.396;2022-11-18T05:31:10;98852.06;;;13.35;100.00
59053;BME280;44843;44.728;10.396;2022-11-18T05:33:36;98850.84;;;13.30;100.00
59053;BME280;44843;44.728;10.396;2022-11-18T05:36:06;98850.84;;;13.30;100.00
59053;BME280;44843;44.728;10.396;2022-11-18T05:38:33;98859.69;;;13.19;100.00
59053;BME280;44843;44.728;10.396;2022-11-18T05:40:59;98855.81;;;13.23;100.00
59053;BME280;44843;44.728;10.396;2022-11-18T05:43:24;98847.53;;;13.28;100.00
59053;BME280;44843;44.728;10.396;2022-11-18T05:45:50;98851.94;;;13.27;100.00
59053;BME280;44843;44.728;10.396;2022-11-18T05:48:17;98862.97;;;13.31;100.00
59053;BME280;44843;44.728;10.396;2022-11-18T05:50:45;98867.88;;;13.44;100.00
59053;BME280;44843;44.728;10.396;2022-11-18T05:53:11;98861.56;;;13.64;100.00
59053;BME280;44843;44.728;10.396;2022-11-18T05:58:11;98871.56;;;13.78;100.00
59053;BME280;44843;44.728;10.396;2022-11-18T06:00:36;98882.03;;;13.78;100.00
59053;BME280;44843;44.728;10.396;2022-11-18T06:03:03;98877.50;;;13.71;100.00
59053;BME280;44843;44.728;10.396;2022-11-18T06:05:32;98881.56;;;13.65;100.00
59053;BME280;44843;44.728;10.396;2022-11-18T06:07:58;98887.06;;;13.62;100.00
59053;BME280;44843;44.728;10.396;2022-11-18T06:10:28;98892.91;;;13.56;100.00
59053;BME280;44843;44.728;10.396;2022-11-18T06:12:57;98892.22;;;13.54;100.00
59053;BME280;44843;44.728;10.396;2022-11-18T06:15:35;98890.72;;;13.51;100.00
59053;BME280;44843;44.728;10.396;2022-11-18T06:18:07;98892.13;;;13.46;100.00
59053;BME280;44843;44.728;10.396;2022-11-18T06:20:35;98898.63;;;13.22;100.00
59053;BME280;44843;44.728;10.396;2022-11-18T06:23:02;98885.16;;;13.17;100.00
59053;BME280;44843;44.728;10.396;2022-11-18T06:25:28;98895.47;;;13.28;100.00
59053;BME280;44843;44.728;10.396;2022-11-18T06:27:56;98896.31;;;13.29;100.00
59053;BME280;44843;44.728;10.396;2022-11-18T06:30:23;98901.28;;;13.32;100.00
59053;BME280;44843;44.728;10.396;2022-11-18T06:32:48;98897.34;;;13.46;100.00
59053;BME280;44843;44.728;10.396;2022-11-18T06:35:14;98903.66;;;13.53;100.00
59053;BME280;44843;44.728;10.396;2022-11-18T06:37:39;98906.97;;;13.55;100.00
59053;BME280;44843;44.728;10.396;2022-11-18T06:40:05;98907.63;;;13.67;100.00
59053;BME280;44843;44.728;10.396;2022-11-18T06:42:30;98899.59;;;13.68;100.00
59053;BME280;44843;44.728;10.396;2022-11-18T06:45:15;98891.53;;;13.79;100.00
59053;BME280;44843;44.728;10.396;2022-11-18T06:47:40;98885.53;;;13.69;100.00
59053;BME280;44843;44.728;10.396;2022-11-18T06:50:06;98889.66;;;13.72;100.00
59053;BME280;44843;44.728;10.396;2022-11-18T06:52:32;98897.03;;;13.58;100.00
59053;BME280;44843;44.728;10.396;2022-11-18T06:54:57;98894.84;;;13.54;100.00
59053;BME280;44843;44.728;10.396;2022-11-18T06:57:23;98899.53;;;13.50;100.00
59053;BME280;44843;44.728;10.396;2022-11-18T06:59:48;98904.78;;;13.50;100.00
59053;BME280;44843;44.728;10.396;2022-11-18T07:02:13;98901.72;;;13.55;100.00
59053;BME280;44843;44.728;10.396;2022-11-18T07:04:39;98904.19;;;13.56;100.00
59053;BME280;44843;44.728;10.396;2022-11-18T07:07:08;98899.66;;;13.49;100.00
59053;BME280;44843;44.728;10.396;2022-11-18T07:09:34;98901.47;;;13.48;100.00
59053;BME280;44843;44.728;10.396;2022-11-18T07:11:59;98903.97;;;13.50;100.00
59053;BME280;44843;44.728;10.396;2022-11-18T07:14:25;98903.81;;;13.51;100.00
59053;BME280;44843;44.728;10.396;2022-11-18T07:16:50;98905.59;;;13.51;100.00
59053;BME280;44843;44.728;10.396;2022-11-18T07:19:15;98902.53;;;13.55;100.00
59053;BME280;44843;44.728;10.396;2022-11-18T07:21:41;98902.13;;;13.60;100.00
59053;BME280;44843;44.728;10.396;2022-11-18T07:24:08;98906.19;;;13.72;100.00
59053;BME280;44843;44.728;10.396;2022-11-18T07:26:35;98903.38;;;13.84;100.00
59053;BME280;44843;44.728;10.396;2022-11-18T07:29:01;98903.03;;;13.96;100.00
59053;BME280;44843;44.728;10.396;2022-11-18T07:31:26;98901.97;;;13.89;100.00
59053;BME280;44843;44.728;10.396;2022-11-18T07:33:51;98905.88;;;14.03;100.00
59053;BME280;44843;44.728;10.396;2022-11-18T07:36:25;98903.56;;;14.00;100.00
59053;BME280;44843;44.728;10.396;2022-11-18T07:38:51;98909.19;;;14.05;100.00
59053;BME280;44843;44.728;10.396;2022-11-18T07:43:45;98906.88;;;14.02;100.00
59053;BME280;44843;44.728;10.396;2022-11-18T07:46:20;98899.28;;;13.99;100.00
59053;BME280;44843;44.728;10.396;2022-11-18T07:48:48;98914.72;;;14.02;100.00
59053;BME280;44843;44.728;10.396;2022-11-18T07:51:16;98915.00;;;13.99;100.00
59053;BME280;44843;44.728;10.396;2022-11-18T07:53:42;98910.75;;;13.98;100.00
59053;BME280;44843;44.728;10.396;2022-11-18T07:56:08;98913.00;;;13.93;100.00
59053;BME280;44843;44.728;10.396;2022-11-18T07:58:35;98913.00;;;13.93;100.00
59053;BME280;44843;44.728;10.396;2022-11-18T08:01:12;98921.09;;;13.99;100.00
59053;BME280;44843;44.728;10.396;2022-11-18T08:03:38;98931.66;;;14.08;100.00
59053;BME280;44843;44.728;10.396;2022-11-18T08:06:06;98930.72;;;13.99;100.00
59053;BME280;44843;44.728;10.396;2022-11-18T08:08:31;98924.31;;;14.11;100.00
59053;BME280;44843;44.728;10.396;2022-11-18T08:10:58;98929.56;;;14.11;100.00
59053;BME280;44843;44.728;10.396;2022-11-18T08:13:24;98926.13;;;14.11;100.00
59053;BME280;44843;44.728;10.396;2022-11-18T08:15:50;98933.34;;;14.27;100.00
59053;BME280;44843;44.728;10.396;2022-11-18T08:18:15;98935.47;;;14.41;100.00
59053;BME280;44843;44.728;10.396;2022-11-18T08:20:41;98930.53;;;14.56;100.00
59053;BME280;44843;44.728;10.396;2022-11-18T08:23:07;98931.28;;;14.66;100.00
59053;BME280;44843;44.728;10.396;2022-11-18T08:25:32;98934.25;;;14.53;100.00
59053;BME280;44843;44.728;10.396;2022-11-18T08:27:57;98934.91;;;14.37;100.00
59053;BME280;44843;44.728;10.396;2022-11-18T08:30:23;98943.47;;;14.39;100.00
59053;BME280;44843;44.728;10.396;2022-11-18T08:32:48;98947.13;;;14.29;100.00
59053;BME280;44843;44.728;10.396;2022-11-18T08:35:14;98939.41;;;14.27;100.00
59053;BME280;44843;44.728;10.396;2022-11-18T08:37:39;98945.38;;;14.19;100.00
59053;BME280;44843;44.728;10.396;2022-11-18T08:40:05;98949.06;;;14.27;100.00
59053;BME280;44843;44.728;10.396;2022-11-18T08:42:31;98945.97;;;14.13;100.00
59053;BME280;44843;44.728;10.396;2022-11-18T08:44:56;98947.34;;;14.17;100.00
59053;BME280;44843;44.728;10.396;2022-11-18T08:47:21;98946.34;;;14.18;100.00
59053;BME280;44843;44.728;10.396;2022-11-18T08:49:47;98952.13;;;14.22;100.00
59053;BME280;44843;44.728;10.396;2022-11-18T08:52:12;98948.69;;;14.21;100.00
59053;BME280;44843;44.728;10.396;2022-11-18T08:54:38;98953.69;;;14.15;100.00
59053;BME280;44843;44.728;10.396;2022-11-18T08:57:03;98953.97;;;14.12;100.00
59053;BME280;44843;44.728;10.396;2022-11-18T08:59:29;98951.66;;;14.09;100.00
59053;BME280;44843;44.728;10.396;2022-11-18T09:01:54;98951.34;;;14.12;100.00
59053;BME280;44843;44.728;10.396;2022-11-18T09:04:19;98960.03;;;14.12;100.00
59053;BME280;44843;44.728;10.396;2022-11-18T09:06:45;98970.72;;;14.29;100.00
59053;BME280;44843;44.728;10.396;2022-11-18T09:09:10;98972.06;;;14.33;100.00
59053;BME280;44843;44.728;10.396;2022-11-18T09:11:37;98974.78;;;14.41;100.00
59053;BME280;44843;44.728;10.396;2022-11-18T09:14:03;98983.72;;;14.48;100.00
59053;BME280;44843;44.728;10.396;2022-11-18T09:16:30;98973.56;;;14.63;100.00
59053;BME280;44843;44.728;10.396;2022-11-18T09:18:56;98969.50;;;14.69;100.00
59053;BME280;44843;44.728;10.396;2022-11-18T09:21:22;98965.84;;;14.61;100.00
59053;BME280;44843;44.728;10.396;2022-11-18T09:23:47;98968.47;;;14.52;100.00
59053;BME280;44843;44.728;10.396;2022-11-18T09:26:15;98970.72;;;14.56;100.00
59053;BME280;44843;44.728;10.396;2022-11-18T09:28:42;98972.09;;;14.51;100.00
59053;BME280;44843;44.728;10.396;2022-11-18T09:31:10;98975.47;;;14.43;100.00
59053;BME280;44843;44.728;10.396;2022-11-18T09:33:36;98976.97;;;14.46;100.00
59053;BME280;44843;44.728;10.396;2022-11-18T09:36:03;98977.00;;;14.36;100.00
59053;BME280;44843;44.728;10.396;2022-11-18T09:38:29;98982.03;;;14.47;100.00
59053;BME280;44843;44.728;10.396;2022-11-18T09:49:15;98980.63;;;14.35;100.00
59053;BME280;44843;44.728;10.396;2022-11-18T09:51:49;98971.78;;;14.36;100.00
59053;BME280;44843;44.728;10.396;2022-11-18T09:54:35;98981.66;;;14.42;100.00
59053;BME280;44843;44.728;10.396;2022-11-18T09:57:02;98980.63;;;14.53;100.00
59053;BME280;44843;44.728;10.396;2022-11-18T09:59:33;98972.56;;;14.64;100.00
59053;BME280;44843;44.728;10.396;2022-11-18T10:02:29;98966.41;;;14.73;100.00
59053;BME280;44843;44.728;10.396;2022-11-18T10:05:16;98964.22;;;14.87;100.00
59053;BME280;44843;44.728;10.396;2022-11-18T10:13:46;98965.97;;;14.78;100.00
59053;BME280;44843;44.728;10.396;2022-11-18T10:16:34;98969.56;;;14.77;100.00
59053;BME280;44843;44.728;10.396;2022-11-18T10:19:26;98963.66;;;14.75;100.00
59053;BME280;44843;44.728;10.396;2022-11-18T10:24:42;98972.66;;;14.72;100.00
59053;BME280;44843;44.728;10.396;2022-11-18T10:27:12;98977.81;;;14.64;100.00
59053;BME280;44843;44.728;10.396;2022-11-18T10:29:39;98976.19;;;14.63;100.00
59053;BME280;44843;44.728;10.396;2022-11-18T10:32:10;98971.00;;;14.71;100.00
59053;BME280;44843;44.728;10.396;2022-11-18T10:34:52;98964.25;;;14.69;100.00
59053;BME280;44843;44.728;10.396;2022-11-18T10:39:50;98982.84;;;14.75;100.00
59053;BME280;44843;44.728;10.396;2022-11-18T10:42:26;98974.75;;;14.69;100.00
59053;BME280;44843;44.728;10.396;2022-11-18T10:44:52;98984.34;;;14.78;100.00
59053;BME280;44843;44.728;10.396;2022-11-18T10:47:30;98979.09;;;14.60;100.00
59053;BME280;44843;44.728;10.396;2022-11-18T10:49:59;98982.78;;;14.85;100.00
59053;BME280;44843;44.728;10.396;2022-11-18T10:52:26;98975.56;;;14.87;100.00
59053;BME280;44843;44.728;10.396;2022-11-18T10:57:39;98988.28;;;15.18;100.00
59053;BME280;44843;44.728;10.396;2022-11-18T11:02:57;98983.72;;;15.20;100.00
59053;BME280;44843;44.728;10.396;2022-11-18T11:05:22;98984.91;;;15.08;100.00
59053;BME280;44843;44.728;10.396;2022-11-18T11:08:03;98986.50;;;15.00;100.00
59053;BME280;44843;44.728;10.396;2022-11-18T11:10:29;98984.34;;;14.96;100.00
59053;BME280;44843;44.728;10.396;2022-11-18T11:12:59;98984.72;;;15.01;100.00
59053;BME280;44843;44.728;10.396;2022-11-18T11:15:41;98983.88;;;15.00;100.00
59053;BME280;44843;44.728;10.396;2022-11-18T11:18:24;98989.19;;;14.91;100.00
59053;BME280;44843;44.728;10.396;2022-11-18T11:21:16;98991.00;;;14.90;100.00
59053;BME280;44843;44.728;10.396;2022-11-18T11:23:42;98988.84;;;14.86;100.00
59053;BME280;44843;44.728;10.396;2022-11-18T11:34:31;98990.69;;;14.93;100.00
59053;BME280;44843;44.728;10.396;2022-11-18T11:37:06;98985.22;;;14.87;100.00
59053;BME280;44843;44.728;10.396;2022-11-18T11:39:39;98989.53;;;14.88;100.00
59053;BME280;44843;44.728;10.396;2022-11-18T11:50:47;98986.22;;;15.30;100.00
59053;BME280;44843;44.728;10.396;2022-11-18T11:59:28;98975.56;;;15.05;100.00
59053;BME280;44843;44.728;10.396;2022-11-18T12:05:00;98974.41;;;15.08;100.00
59053;BME280;44843;44.728;10.396;2022-11-18T12:07:30;98974.81;;;14.95;100.00
59053;BME280;44843;44.728;10.396;2022-11-18T12:12:51;98971.22;;;14.96;100.00
59053;BME280;44843;44.728;10.396;2022-11-18T12:18:14;98974.13;;;14.93;100.00
59053;BME280;44843;44.728;10.396;2022-11-18T12:20:54;98971.00;;;14.89;100.00
59053;BME280;44843;44.728;10.396;2022-11-18T12:28:42;98979.69;;;14.90;100.00
59053;BME280;44843;44.728;10.396;2022-11-18T12:31:30;98981.19;;;14.92;100.00
59053;BME280;44843;44.728;10.396;2022-11-18T12:36:37;98971.53;;;15.19;100.00
59053;BME280;44843;44.728;10.396;2022-11-18T12:41:53;98972.34;;;15.63;100.00
59053;BME280;44843;44.728;10.396;2022-11-18T12:44:38;98973.63;;;15.59;100.00
59053;BME280;44843;44.728;10.396;2022-11-18T12:47:06;98972.16;;;15.39;100.00
59053;BME280;44843;44.728;10.396;2022-11-18T12:51:58;98974.22;;;15.27;100.00
59053;BME280;44843;44.728;10.396;2022-11-18T12:54:36;98975.84;;;15.20;100.00
59053;BME280;44843;44.728;10.396;2022-11-18T12:57:14;98969.59;;;15.21;100.00
59053;BME280;44843;44.728;10.396;2022-11-18T12:59:42;98972.16;;;15.13;100.00
59053;BME280;44843;44.728;10.396;2022-11-18T13:04:39;98966.75;;;15.14;100.00
59053;BME280;44843;44.728;10.396;2022-11-18T13:07:08;98972.31;;;15.11;100.00
59053;BME280;44843;44.728;10.396;2022-11-18T13:09:55;98970.31;;;15.05;100.00
59053;BME280;44843;44.728;10.396;2022-11-18T13:12:25;98965.34;;;15.02;100.00
59053;BME280;44843;44.728;10.396;2022-11-18T13:14:51;98965.34;;;15.02;100.00
59053;BME280;44843;44.728;10.396;2022-11-18T13:17:41;98955.69;;;15.02;100.00
59053;BME280;44843;44.728;10.396;2022-11-18T13:23:17;98963.16;;;15.15;100.00
59053;BME280;44843;44.728;10.396;2022-11-18T13:26:29;98954.25;;;15.34;100.00
59053;BME280;44843;44.728;10.396;2022-11-18T13:34:25;98934.78;;;15.71;100.00
59053;BME280;44843;44.728;10.396;2022-11-18T13:36:53;98931.13;;;15.64;100.00
59053;BME280;44843;44.728;10.396;2022-11-18T13:39:25;98937.97;;;15.57;100.00
59053;BME280;44843;44.728;10.396;2022-11-18T13:42:04;98947.16;;;15.53;100.00
59053;BME280;44843;44.728;10.396;2022-11-18T13:44:35;98943.47;;;15.45;100.00
59053;BME280;44843;44.728;10.396;2022-11-18T13:47:18;98953.75;;;15.31;100.00
59053;BME280;44843;44.728;10.396;2022-11-18T13:52:43;98954.38;;;15.24;100.00
59053;BME280;44843;44.728;10.396;2022-11-18T13:55:29;98960.63;;;15.32;100.00
59053;BME280;44843;44.728;10.396;2022-11-18T13:58:06;98962.38;;;15.23;100.00
59053;BME280;44843;44.728;10.396;2022-11-18T14:01:00;98957.94;;;15.23;100.00
59053;BME280;44843;44.728;10.396;2022-11-18T14:03:35;98963.53;;;15.20;100.00
59053;BME280;44843;44.728;10.396;2022-11-18T14:06:04;98962.03;;;15.18;100.00
59053;BME280;44843;44.728;10.396;2022-11-18T14:08:33;98964.13;;;15.14;100.00
59053;BME280;44843;44.728;10.396;2022-11-18T14:10:59;98956.72;;;15.10;100.00
59053;BME280;44843;44.728;10.396;2022-11-18T14:13:31;98956.16;;;15.24;100.00
59053;BME280;44843;44.728;10.396;2022-11-18T14:15:59;98945.41;;;15.35;100.00
59053;BME280;44843;44.728;10.396;2022-11-18T14:18:35;98945.16;;;15.47;100.00
59053;BME280;44843;44.728;10.396;2022-11-18T14:21:02;98950.84;;;15.68;100.00
59053;BME280;44843;44.728;10.396;2022-11-18T14:23:35;98949.69;;;15.71;100.00
59053;BME280;44843;44.728;10.396;2022-11-18T14:26:03;98952.03;;;15.74;100.00
59053;BME280;44843;44.728;10.396;2022-11-18T14:28:33;98947.84;;;15.63;100.00
59053;BME280;44843;44.728;10.396;2022-11-18T14:33:27;98961.72;;;15.47;100.00
59053;BME280;44843;44.728;10.396;2022-11-18T14:36:14;98964.34;;;15.47;100.00
59053;BME280;44843;44.728;10.396;2022-11-18T14:38:50;98965.47;;;15.44;100.00